createdAt,value
2023-04-18T00:00:43.609Z,2952.00
2023-04-18T00:01:43.571Z,2946.00
2023-04-18T00:02:43.684Z,2947.00
2023-04-18T00:03:43.828Z,2943.00
2023-04-18T00:04:43.666Z,2944.00
2023-04-18T00:05:43.653Z,2954.00
2023-04-18T00:06:43.660Z,2971.00
2023-04-18T00:07:43.694Z,2957.00
2023-04-18T00:08:43.726Z,2963.00
2023-04-18T00:09:43.832Z,2952.00
2023-04-18T00:10:43.769Z,2973.00
2023-04-18T00:11:43.795Z,2962.00
2023-04-18T00:12:43.793Z,2955.00
2023-04-18T00:13:43.828Z,2952.00
2023-04-18T00:14:43.848Z,2953.00
2023-04-18T00:15:43.874Z,2949.00
2023-04-18T00:16:43.950Z,2958.00
2023-04-18T00:17:44.001Z,2967.00
2023-04-18T00:18:43.934Z,2970.00
2023-04-18T00:19:43.981Z,2948.00
2023-04-18T00:20:43.978Z,2933.00
2023-04-18T00:21:43.980Z,2943.00
2023-04-18T00:22:43.980Z,2935.00
2023-04-18T00:23:44.020Z,2940.00
2023-04-18T00:24:44.045Z,2943.00
2023-04-18T00:25:44.054Z,2949.00
2023-04-18T00:26:44.079Z,2944.00
2023-04-18T00:27:44.097Z,2945.00
2023-04-18T00:28:44.085Z,2946.00
2023-04-18T00:29:44.097Z,2929.00
2023-04-18T00:30:44.155Z,2932.00
2023-04-18T00:31:44.087Z,2935.00
2023-04-18T00:32:44.108Z,2955.00
2023-04-18T00:33:44.084Z,2949.00
2023-04-18T00:34:44.113Z,2930.00
2023-04-18T00:35:44.101Z,2927.00
2023-04-18T00:36:44.111Z,2938.00
2023-04-18T00:37:44.106Z,2910.00
2023-04-18T00:38:44.111Z,2918.00
2023-04-18T00:39:44.114Z,2932.00
2023-04-18T00:40:44.118Z,2929.00
2023-04-18T00:41:44.134Z,2922.00
2023-04-18T00:42:44.103Z,2920.00
2023-04-18T00:43:44.350Z,2913.00
2023-04-18T00:44:44.230Z,2933.00
2023-04-18T00:45:44.226Z,2931.00
2023-04-18T00:46:44.143Z,2930.00
2023-04-18T00:47:44.190Z,2911.00
2023-04-18T00:48:44.158Z,2925.00
2023-04-18T00:49:44.162Z,2917.00
2023-04-18T00:50:44.172Z,2919.00
2023-04-18T00:51:44.167Z,2922.00
2023-04-18T00:52:44.171Z,2909.00
2023-04-18T00:53:44.211Z,2894.00
2023-04-18T00:54:44.173Z,2919.00
2023-04-18T00:55:44.189Z,2916.00
2023-04-18T00:56:44.140Z,2903.00
2023-04-18T00:57:44.177Z,2912.00
2023-04-18T00:58:44.150Z,2903.00
2023-04-18T00:59:44.140Z,2895.00
2023-04-18T01:00:44.139Z,2898.00
2023-04-18T01:01:44.161Z,2890.00
2023-04-18T01:02:44.309Z,2881.00
2023-04-18T01:03:44.292Z,2886.00
2023-04-18T01:04:44.165Z,2884.00
2023-04-18T01:05:44.204Z,2889.00
2023-04-18T01:06:44.205Z,2878.00
2023-04-18T01:07:44.222Z,2886.00
2023-04-18T01:08:44.273Z,2903.00
2023-04-18T01:09:44.259Z,2891.00
2023-04-18T01:10:44.326Z,2902.00
2023-04-18T01:11:44.316Z,2884.00
2023-04-18T01:12:44.436Z,2883.00
2023-04-18T01:13:44.354Z,2874.00
2023-04-18T01:14:44.369Z,2862.00
2023-04-18T01:15:44.425Z,2856.00
2023-04-18T01:16:44.424Z,2875.00
2023-04-18T01:17:44.489Z,2867.00
2023-04-18T01:18:44.475Z,2856.00
2023-04-18T01:19:44.505Z,2854.00
2023-04-18T01:20:44.552Z,2848.00
2023-04-18T01:21:44.580Z,2864.00
2023-04-18T01:22:44.594Z,2846.00
2023-04-18T01:23:44.598Z,2856.00
2023-04-18T01:24:44.611Z,2858.00
2023-04-18T01:25:44.640Z,2854.00
2023-04-18T01:26:44.668Z,2852.00
2023-04-18T01:27:44.675Z,2854.00
2023-04-18T01:28:44.683Z,2858.00
2023-04-18T01:29:44.750Z,2858.00
2023-04-18T01:30:44.757Z,2852.00
2023-04-18T01:31:44.870Z,2834.00
2023-04-18T01:32:44.828Z,2844.00
2023-04-18T01:33:44.793Z,2833.00
2023-04-18T01:34:44.829Z,2838.00
2023-04-18T01:35:44.870Z,2830.00
2023-04-18T01:36:44.867Z,2844.00
2023-04-18T01:37:44.904Z,2860.00
2023-04-18T01:38:44.935Z,2847.00
2023-04-18T01:39:44.944Z,2848.00
2023-04-18T01:40:44.968Z,2842.00
2023-04-18T01:41:44.979Z,2845.00
2023-04-18T01:42:44.994Z,2841.00
2023-04-18T01:43:45.090Z,2840.00
2023-04-18T01:44:45.036Z,2819.00
2023-04-18T01:45:45.081Z,2829.00
2023-04-18T01:46:45.137Z,2839.00
2023-04-18T01:47:45.147Z,2839.00
2023-04-18T01:48:45.125Z,2817.00
2023-04-18T01:49:45.166Z,2821.00
2023-04-18T01:50:45.175Z,2818.00
2023-04-18T01:51:45.197Z,2810.00
2023-04-18T01:52:45.198Z,2830.00
2023-04-18T01:53:45.236Z,2803.00
2023-04-18T01:54:45.251Z,2810.00
2023-04-18T01:55:45.275Z,2813.00
2023-04-18T01:56:45.307Z,2820.00
2023-04-18T01:57:45.322Z,2812.00
2023-04-18T01:58:45.339Z,2817.00
2023-04-18T01:59:45.379Z,2816.00
2023-04-18T02:00:45.478Z,2817.00
2023-04-18T02:01:45.387Z,2817.00
2023-04-18T02:02:45.476Z,2825.00
2023-04-18T02:03:45.731Z,2834.00
2023-04-18T02:04:45.421Z,2843.00
2023-04-18T02:05:45.382Z,2831.00
2023-04-18T02:06:45.399Z,2838.00
2023-04-18T02:07:45.396Z,2854.00
2023-04-18T02:08:45.420Z,2826.00
2023-04-18T02:09:45.409Z,2829.00
2023-04-18T02:10:45.413Z,2835.00
2023-04-18T02:11:45.395Z,2825.00
2023-04-18T02:12:45.414Z,2838.00
2023-04-18T02:13:45.401Z,2834.00
2023-04-18T02:14:45.376Z,2830.00
2023-04-18T02:15:45.418Z,2811.00
2023-04-18T02:16:45.432Z,2821.00
2023-04-18T02:17:45.458Z,2806.00
2023-04-18T02:18:45.476Z,2804.00
2023-04-18T02:19:45.382Z,2792.00
2023-04-18T02:20:45.394Z,2788.00
2023-04-18T02:21:45.376Z,2751.00
2023-04-18T02:22:45.371Z,2731.00
2023-04-18T02:23:45.382Z,2730.00
2023-04-18T02:24:45.391Z,2732.00
2023-04-18T02:25:45.377Z,2726.00
2023-04-18T02:26:45.383Z,2716.00
2023-04-18T02:27:45.394Z,2699.00
2023-04-18T02:28:45.382Z,2703.00
2023-04-18T02:29:45.423Z,2720.00
2023-04-18T02:30:45.421Z,2695.00
2023-04-18T02:31:45.540Z,2670.00
2023-04-18T02:32:45.494Z,2656.00
2023-04-18T02:33:45.512Z,2630.00
2023-04-18T02:34:45.535Z,2641.00
2023-04-18T02:35:45.562Z,2659.00
2023-04-18T02:36:45.568Z,2651.00
2023-04-18T02:37:45.616Z,2638.00
2023-04-18T02:38:45.608Z,2634.00
2023-04-18T02:39:45.660Z,2612.00
2023-04-18T02:40:45.711Z,2632.00
2023-04-18T02:41:45.713Z,2626.00
2023-04-18T02:42:45.718Z,2607.00
2023-04-18T02:43:45.747Z,2591.00
2023-04-18T02:44:45.780Z,2593.00
2023-04-18T02:45:45.812Z,2599.00
2023-04-18T02:46:45.857Z,2575.00
2023-04-18T02:47:54.476Z,2573.00
2023-04-18T02:48:47.420Z,2574.00
2023-04-18T02:49:45.850Z,2553.00
2023-04-18T02:50:45.836Z,2468.00
2023-04-18T02:51:45.840Z,2421.00
2023-04-18T02:52:45.851Z,2359.00
2023-04-18T02:53:45.946Z,2328.00
2023-04-18T02:54:45.842Z,2282.00
2023-04-18T02:55:45.868Z,2257.00
2023-04-18T02:56:45.888Z,2212.00
2023-04-18T02:57:45.843Z,2212.00
2023-04-18T02:58:45.864Z,2198.00
2023-04-18T02:59:45.857Z,2186.00
2023-04-18T03:00:45.869Z,2171.00
2023-04-18T03:01:45.907Z,2176.00
2023-04-18T03:02:46.019Z,2162.00
2023-04-18T03:03:45.867Z,2141.00
2023-04-18T03:04:45.896Z,2107.00
2023-04-18T03:05:45.896Z,2076.00
2023-04-18T03:06:45.888Z,2088.00
2023-04-18T03:07:45.881Z,1995.00
2023-04-18T03:08:45.905Z,1982.00
2023-04-18T03:09:45.905Z,1970.00
2023-04-18T03:10:45.907Z,1966.00
2023-04-18T03:11:45.920Z,1952.00
2023-04-18T03:12:45.974Z,1932.00
2023-04-18T03:13:45.925Z,1940.00
2023-04-18T03:14:45.932Z,1938.00
2023-04-18T03:15:46.008Z,1925.00
2023-04-18T03:16:46.069Z,1957.00
2023-04-18T03:17:46.149Z,1993.00
2023-04-18T03:18:46.170Z,2020.00
2023-04-18T03:19:46.256Z,2034.00
2023-04-18T03:20:46.294Z,2015.00
2023-04-18T03:21:46.333Z,2033.00
2023-04-18T03:22:46.381Z,2030.00
2023-04-18T03:23:46.518Z,2039.00
2023-04-18T03:24:46.520Z,2036.00
2023-04-18T03:25:46.596Z,2065.00
2023-04-18T03:26:46.611Z,2069.00
2023-04-18T03:27:46.761Z,2062.00
2023-04-18T03:28:46.697Z,2096.00
2023-04-18T03:29:46.824Z,2106.00
2023-04-18T03:30:46.848Z,2107.00
2023-04-18T03:31:46.913Z,2134.00
2023-04-18T03:32:46.983Z,2141.00
2023-04-18T03:33:46.944Z,2121.00
2023-04-18T03:34:47.006Z,2114.00
2023-04-18T03:35:47.096Z,2155.00
2023-04-18T03:36:47.989Z,2159.00
2023-04-18T03:37:47.141Z,2181.00
2023-04-18T03:38:47.190Z,2176.00
2023-04-18T03:39:47.260Z,2167.00
2023-04-18T03:40:47.311Z,2165.00
2023-04-18T03:41:47.354Z,2173.00
2023-04-18T03:42:47.400Z,2185.00
2023-04-18T03:43:47.441Z,2184.00
2023-04-18T03:44:47.510Z,2193.00
2023-04-18T03:45:47.626Z,2219.00
2023-04-18T03:46:47.581Z,2214.00
2023-04-18T03:47:47.695Z,2205.00
2023-04-18T03:48:47.681Z,2211.00
2023-04-18T03:49:47.711Z,2238.00
2023-04-18T03:50:47.755Z,2231.00
2023-04-18T03:51:47.994Z,2246.00
2023-04-18T03:52:47.858Z,2254.00
2023-04-18T03:53:47.888Z,2227.00
2023-04-18T03:54:48.002Z,2235.00
2023-04-18T03:55:47.990Z,2204.00
2023-04-18T03:56:48.039Z,2234.00
2023-04-18T03:57:48.093Z,2209.00
2023-04-18T03:58:48.145Z,2252.00
2023-04-18T03:59:48.177Z,2240.00
2023-04-18T04:00:48.230Z,2236.00
2023-04-18T04:01:48.338Z,2258.00
2023-04-18T04:02:48.442Z,2257.00
2023-04-18T04:03:48.433Z,2251.00
2023-04-18T04:04:48.472Z,2260.00
2023-04-18T04:05:48.455Z,2256.00
2023-04-18T04:06:48.497Z,2250.00
2023-04-18T04:07:48.562Z,2264.00
2023-04-18T04:08:48.595Z,2250.00
2023-04-18T04:09:48.636Z,2255.00
2023-04-18T04:10:48.666Z,2266.00
2023-04-18T04:11:48.758Z,2244.00
2023-04-18T04:12:48.772Z,2248.00
2023-04-18T04:13:48.780Z,2249.00
2023-04-18T04:14:48.752Z,2251.00
2023-04-18T04:15:48.755Z,2258.00
2023-04-18T04:16:48.876Z,2266.00
2023-04-18T04:17:48.859Z,2262.00
2023-04-18T04:18:48.764Z,2250.00
2023-04-18T04:19:48.757Z,2254.00
2023-04-18T04:20:48.764Z,2260.00
2023-04-18T04:21:48.755Z,2280.00
2023-04-18T04:22:48.763Z,2306.00
2023-04-18T04:23:48.755Z,2309.00
2023-04-18T04:24:48.773Z,2285.00
2023-04-18T04:25:48.760Z,2318.00
2023-04-18T04:26:48.758Z,2299.00
2023-04-18T04:27:49.085Z,2287.00
2023-04-18T04:28:48.771Z,2295.00
2023-04-18T04:29:48.767Z,2286.00
2023-04-18T04:30:48.773Z,2285.00
2023-04-18T04:31:48.831Z,2284.00
2023-04-18T04:32:48.872Z,2285.00
2023-04-18T04:33:48.781Z,2288.00
2023-04-18T04:34:48.811Z,2253.00
2023-04-18T04:35:48.783Z,2217.00
2023-04-18T04:36:48.782Z,2163.00
2023-04-18T04:37:48.804Z,2146.00
2023-04-18T04:38:48.823Z,2114.00
2023-04-18T04:39:48.818Z,2153.00
2023-04-18T04:40:48.812Z,2139.00
2023-04-18T04:41:48.829Z,2137.00
2023-04-18T04:42:48.854Z,2134.00
2023-04-18T04:43:48.862Z,2143.00
2023-04-18T04:44:48.916Z,2142.00
2023-04-18T04:45:48.949Z,2137.00
2023-04-18T04:46:48.895Z,2126.00
2023-04-18T04:47:49.000Z,2104.00
2023-04-18T04:48:49.024Z,2112.00
2023-04-18T04:49:49.077Z,2109.00
2023-04-18T04:50:49.259Z,2089.00
2023-04-18T04:51:49.217Z,2080.00
2023-04-18T04:52:49.291Z,2105.00
2023-04-18T04:53:49.355Z,2045.00
2023-04-18T04:54:49.429Z,2061.00
2023-04-18T04:55:49.482Z,2041.00
2023-04-18T04:56:49.562Z,2037.00
2023-04-18T04:57:49.671Z,2062.00
2023-04-18T04:58:49.685Z,2023.00
2023-04-18T04:59:49.789Z,2022.00
2023-04-18T05:00:49.874Z,2011.00
2023-04-18T05:01:49.922Z,2002.00
2023-04-18T05:02:50.397Z,1985.00
2023-04-18T05:03:50.306Z,1988.00
2023-04-18T05:04:50.155Z,1960.00
2023-04-18T05:05:50.254Z,1926.00
2023-04-18T05:06:50.314Z,1914.00
2023-04-18T05:07:50.400Z,1915.00
2023-04-18T05:08:50.542Z,1913.00
2023-04-18T05:09:50.661Z,1883.00
2023-04-18T05:10:50.669Z,1863.00
2023-04-18T05:11:50.709Z,1871.00
2023-04-18T05:12:50.784Z,1906.00
2023-04-18T05:13:50.856Z,1935.00
2023-04-18T05:14:50.920Z,1946.00
2023-04-18T05:15:50.993Z,1942.00
2023-04-18T05:16:51.114Z,1943.00
2023-04-18T05:17:51.149Z,1968.00
2023-04-18T05:18:51.183Z,1983.00
2023-04-18T05:19:51.275Z,1975.00
2023-04-18T05:20:51.303Z,1993.00
2023-04-18T05:21:51.326Z,1994.00
2023-04-18T05:22:51.337Z,1999.00
2023-04-18T05:23:51.347Z,2017.00
2023-04-18T05:24:51.352Z,2040.00
2023-04-18T05:25:51.352Z,2084.00
2023-04-18T05:26:51.366Z,2102.00
2023-04-18T05:27:51.424Z,2105.00
2023-04-18T05:28:51.407Z,2116.00
2023-04-18T05:29:51.411Z,2094.00
2023-04-18T05:30:51.559Z,2105.00
2023-04-18T05:31:51.438Z,2129.00
2023-04-18T05:32:51.507Z,2130.00
2023-04-18T05:33:51.461Z,2136.00
2023-04-18T05:34:51.590Z,2137.00
2023-04-18T05:35:51.607Z,2125.00
2023-04-18T05:36:51.659Z,2145.00
2023-04-18T05:37:51.702Z,2179.00
2023-04-18T05:38:51.788Z,2218.00
2023-04-18T05:39:51.816Z,2209.00
2023-04-18T05:40:51.877Z,2227.00
2023-04-18T05:41:51.948Z,2251.00
2023-04-18T05:42:52.025Z,2237.00
2023-04-18T05:44:02.300Z,2251.00
2023-04-18T05:44:53.039Z,2252.00
2023-04-18T05:45:52.326Z,2242.00
2023-04-18T05:46:52.175Z,2237.00
2023-04-18T05:47:52.886Z,2227.00
2023-04-18T05:48:52.053Z,2205.00
2023-04-18T05:49:52.053Z,2198.00
2023-04-18T05:50:52.068Z,2180.00
2023-04-18T05:51:52.096Z,2151.00
2023-04-18T05:52:52.104Z,2117.00
2023-04-18T05:53:52.122Z,2105.00
2023-04-18T05:54:52.988Z,2109.00
2023-04-18T05:55:52.105Z,2093.00
2023-04-18T05:56:52.136Z,2096.00
2023-04-18T05:57:52.199Z,2102.00
2023-04-18T05:58:52.252Z,2095.00
2023-04-18T05:59:52.327Z,2099.00
2023-04-18T06:00:52.418Z,2085.00
2023-04-18T06:01:52.470Z,2096.00
2023-04-18T06:02:52.717Z,2089.00
2023-04-18T06:03:52.836Z,2103.00
2023-04-18T06:04:52.751Z,2090.00
2023-04-18T06:05:52.759Z,2093.00
2023-04-18T06:06:52.740Z,2088.00
2023-04-18T06:07:52.873Z,2090.00
2023-04-18T06:08:52.864Z,2088.00
2023-04-18T06:09:52.929Z,2081.00
2023-04-18T06:10:52.980Z,2111.00
2023-04-18T06:11:53.074Z,2093.00
2023-04-18T06:12:53.102Z,2115.00
2023-04-18T06:13:53.159Z,2122.00
2023-04-18T06:14:53.318Z,2114.00
2023-04-18T06:15:53.313Z,2117.00
2023-04-18T06:16:53.330Z,2108.00
2023-04-18T06:17:53.424Z,2126.00
2023-04-18T06:18:53.443Z,2132.00
2023-04-18T06:19:53.604Z,2130.00
2023-04-18T06:20:53.580Z,2123.00
2023-04-18T06:21:53.650Z,2127.00
2023-04-18T06:22:53.688Z,2138.00
2023-04-18T06:23:53.755Z,2138.00
2023-04-18T06:24:53.822Z,2122.00
2023-04-18T06:25:53.877Z,2132.00
2023-04-18T06:26:53.891Z,2132.00
2023-04-18T06:27:53.932Z,2126.00
2023-04-18T06:28:54.029Z,2135.00
2023-04-18T06:29:53.931Z,2144.00
2023-04-18T06:30:53.969Z,2163.00
2023-04-18T06:31:54.051Z,2133.00
2023-04-18T06:32:54.032Z,2141.00
2023-04-18T06:33:53.978Z,2156.00
2023-04-18T06:34:53.981Z,2181.00
2023-04-18T06:35:54.042Z,2228.00
2023-04-18T06:36:54.011Z,2239.00
2023-04-18T06:37:54.022Z,2229.00
2023-04-18T06:38:54.126Z,2257.00
2023-04-18T06:39:54.048Z,2270.00
2023-04-18T06:40:54.052Z,2266.00
2023-04-18T06:41:54.158Z,2274.00
2023-04-18T06:42:54.190Z,2285.00
2023-04-18T06:44:03.353Z,2268.00
2023-04-18T06:44:55.177Z,2269.00
2023-04-18T06:45:54.251Z,2256.00
2023-04-18T06:46:54.193Z,2269.00
2023-04-18T06:47:54.348Z,2266.00
2023-04-18T06:48:54.293Z,2269.00
2023-04-18T06:49:54.226Z,2266.00
2023-04-18T06:50:54.266Z,2283.00
2023-04-18T06:51:54.313Z,2295.00
2023-04-18T06:52:54.374Z,2293.00
2023-04-18T06:53:54.697Z,2317.00
2023-04-18T06:54:54.398Z,2340.00
2023-04-18T06:55:54.406Z,2336.00
2023-04-18T06:56:55.131Z,2350.00
2023-04-18T06:57:54.515Z,2368.00
2023-04-18T06:58:54.608Z,2361.00
2023-04-18T06:59:54.585Z,2351.00
2023-04-18T07:00:54.683Z,2377.00
2023-04-18T07:01:54.757Z,2380.00
2023-04-18T07:02:54.904Z,2388.00
2023-04-18T07:03:54.867Z,2382.00
2023-04-18T07:04:54.775Z,2382.00
2023-04-18T07:05:54.801Z,2384.00
2023-04-18T07:06:54.807Z,2384.00
2023-04-18T07:07:54.855Z,2397.00
2023-04-18T07:08:54.805Z,2391.00
2023-04-18T07:09:54.873Z,2374.00
2023-04-18T07:10:54.845Z,2375.00
2023-04-18T07:11:54.874Z,2366.00
2023-04-18T07:12:54.854Z,2370.00
2023-04-18T07:13:54.940Z,2356.00
2023-04-18T07:14:54.882Z,2367.00
2023-04-18T07:15:54.882Z,2353.00
2023-04-18T07:16:54.962Z,2348.00
2023-04-18T07:17:54.927Z,2341.00
2023-04-18T07:18:55.195Z,2333.00
2023-04-18T07:19:55.138Z,2280.00
2023-04-18T07:20:54.996Z,2280.00
2023-04-18T07:21:54.892Z,2279.00
2023-04-18T07:22:54.943Z,2258.00
2023-04-18T07:23:54.930Z,2231.00
2023-04-18T07:24:54.976Z,2245.00
2023-04-18T07:25:54.932Z,2250.00
2023-04-18T07:26:55.266Z,2218.00
2023-04-18T07:27:54.937Z,2226.00
2023-04-18T07:28:56.719Z,2272.00
2023-04-18T07:29:55.039Z,2260.00
2023-04-18T07:30:54.976Z,2273.00
2023-04-18T07:31:55.029Z,2274.00
2023-04-18T07:32:55.053Z,2268.00
2023-04-18T07:33:55.134Z,2245.00
2023-04-18T07:34:55.048Z,2274.00
2023-04-18T07:35:54.999Z,2274.00
2023-04-18T07:36:55.024Z,2266.00
2023-04-18T07:37:54.990Z,2245.00
2023-04-18T07:38:55.574Z,2253.00
2023-04-18T07:39:55.016Z,2182.00
2023-04-18T07:40:54.995Z,2132.00
2023-04-18T07:41:55.032Z,2100.00
2023-04-18T07:42:55.011Z,2092.00
2023-04-18T07:43:55.069Z,2012.00
2023-04-18T07:44:55.089Z,1991.00
2023-04-18T07:45:55.090Z,1895.00
2023-04-18T07:46:55.012Z,1870.00
2023-04-18T07:47:55.126Z,1805.00
2023-04-18T07:48:55.090Z,1775.00
2023-04-18T07:49:55.125Z,1758.00
2023-04-18T07:50:55.128Z,1697.00
2023-04-18T07:51:55.327Z,1650.00
2023-04-18T07:52:55.097Z,1557.00
2023-04-18T07:53:55.184Z,1546.00
2023-04-18T07:54:55.165Z,1483.00
2023-04-18T07:55:55.131Z,1460.00
2023-04-18T07:56:55.185Z,1417.00
2023-04-18T07:57:55.168Z,1353.00
2023-04-18T07:58:55.198Z,1321.00
2023-04-18T07:59:55.235Z,1218.00
2023-04-18T08:00:55.224Z,1161.00
2023-04-18T08:01:55.300Z,1088.00
2023-04-18T08:02:55.325Z,1087.00
2023-04-18T08:03:55.289Z,1111.00
2023-04-18T08:04:55.485Z,1029.00
2023-04-18T08:05:55.280Z,998.00
2023-04-18T08:06:56.064Z,930.00
2023-04-18T08:07:55.236Z,897.00
2023-04-18T08:08:56.103Z,883.00
2023-04-18T08:09:55.279Z,840.00
2023-04-18T08:10:55.268Z,822.00
2023-04-18T08:11:55.284Z,799.00
2023-04-18T08:12:55.297Z,799.00
2023-04-18T08:13:55.263Z,738.00
2023-04-18T08:14:55.268Z,743.00
2023-04-18T08:15:55.304Z,735.00
2023-04-18T08:16:55.303Z,705.00
2023-04-18T08:17:55.426Z,701.00
2023-04-18T08:18:55.313Z,703.00
2023-04-18T08:20:00.645Z,651.00
2023-04-18T08:20:55.330Z,491.00
2023-04-18T08:21:55.310Z,400.00
2023-04-18T08:23:55.362Z,400.00
2023-04-18T08:25:04.182Z,400.00
2023-04-18T08:25:56.393Z,400.00
2023-04-18T08:26:55.392Z,400.00
2023-04-18T08:27:55.438Z,400.00
2023-04-18T08:28:55.530Z,400.00
2023-04-18T08:30:03.191Z,400.00
2023-04-18T08:30:55.461Z,400.00
2023-04-18T08:31:55.491Z,400.00
2023-04-18T08:32:55.550Z,400.00
2023-04-18T08:33:55.487Z,400.00
2023-04-18T08:34:55.480Z,400.00
2023-04-18T08:35:55.511Z,400.00
2023-04-18T08:36:55.511Z,400.00
2023-04-18T08:37:55.493Z,400.00
2023-04-18T08:38:55.522Z,400.00
2023-04-18T08:39:55.532Z,400.00
2023-04-18T08:40:55.528Z,400.00
2023-04-18T08:41:55.543Z,400.00
2023-04-18T08:42:55.521Z,400.00
2023-04-18T08:43:57.044Z,475.00
2023-04-18T08:44:55.567Z,518.00
2023-04-18T08:45:55.665Z,527.00
2023-04-18T08:46:55.656Z,565.00
2023-04-18T08:47:55.733Z,579.00
2023-04-18T08:48:56.653Z,582.00
2023-04-18T08:49:55.783Z,576.00
2023-04-18T08:50:56.550Z,590.00
2023-04-18T08:51:55.814Z,612.00
2023-04-18T08:52:55.831Z,640.00
2023-04-18T08:53:55.894Z,650.00
2023-04-18T08:54:55.906Z,653.00
2023-04-18T08:55:55.926Z,689.00
2023-04-18T08:56:55.961Z,736.00
2023-04-18T08:57:55.988Z,780.00
2023-04-18T08:58:55.992Z,807.00
2023-04-18T08:59:56.147Z,870.00
2023-04-18T09:00:56.097Z,862.00
2023-04-18T09:01:56.064Z,865.00
2023-04-18T09:02:56.336Z,868.00
2023-04-18T09:03:56.745Z,875.00
2023-04-18T09:04:56.037Z,860.00
2023-04-18T09:05:56.059Z,884.00
2023-04-18T09:06:56.041Z,954.00
2023-04-18T09:07:56.055Z,1021.00
2023-04-18T09:08:56.035Z,1075.00
2023-04-18T09:09:56.084Z,1097.00
2023-04-18T09:10:56.066Z,1056.00
2023-04-18T09:11:56.660Z,1089.00
2023-04-18T09:12:56.032Z,1143.00
2023-04-18T09:13:56.013Z,1197.00
2023-04-18T09:14:56.024Z,1234.00
2023-04-18T09:15:56.079Z,1267.00
2023-04-18T09:16:56.164Z,1308.00
2023-04-18T09:17:56.248Z,1341.00
2023-04-18T09:18:56.003Z,1381.00
2023-04-18T09:19:56.034Z,1420.00
2023-04-18T09:20:56.038Z,1458.00
2023-04-18T09:21:56.016Z,1527.00
2023-04-18T09:22:56.033Z,1597.00
2023-04-18T09:23:56.016Z,1598.00
2023-04-18T09:24:56.012Z,1630.00
2023-04-18T09:25:56.054Z,1632.00
2023-04-18T09:26:56.052Z,1642.00
2023-04-18T09:27:56.020Z,1682.00
2023-04-18T09:28:56.026Z,1719.00
2023-04-18T09:29:57.920Z,1749.00
2023-04-18T09:30:56.118Z,1757.00
2023-04-18T09:31:56.029Z,1786.00
2023-04-18T09:32:56.082Z,1797.00
2023-04-18T09:33:56.070Z,1848.00
2023-04-18T09:34:56.099Z,1882.00
2023-04-18T09:35:56.138Z,1899.00
2023-04-18T09:36:56.237Z,1895.00
2023-04-18T09:37:56.271Z,1925.00
2023-04-18T09:38:57.157Z,1940.00
2023-04-18T09:39:56.320Z,1929.00
2023-04-18T09:40:56.425Z,1959.00
2023-04-18T09:41:56.495Z,2018.00
2023-04-18T09:42:56.551Z,2066.00
2023-04-18T09:43:56.507Z,2117.00
2023-04-18T09:44:56.921Z,2023.00
2023-04-18T09:45:56.611Z,1971.00
2023-04-18T09:46:56.568Z,1991.00
2023-04-18T09:47:56.679Z,1983.00
2023-04-18T09:48:56.671Z,1996.00
2023-04-18T09:49:56.683Z,1998.00
2023-04-18T09:50:56.679Z,2003.00
2023-04-18T09:51:56.675Z,1975.00
2023-04-18T09:52:56.809Z,1973.00
2023-04-18T09:53:56.935Z,1964.00
2023-04-18T09:54:56.748Z,1938.00
2023-04-18T09:55:58.595Z,1960.00
2023-04-18T09:56:56.852Z,1986.00
2023-04-18T09:57:56.733Z,1988.00
2023-04-18T09:58:56.789Z,2027.00
2023-04-18T09:59:56.858Z,2121.00
2023-04-18T10:00:56.950Z,2102.00
2023-04-18T10:01:57.699Z,2123.00
2023-04-18T10:02:57.679Z,2112.00
2023-04-18T10:03:57.082Z,2082.00
2023-04-18T10:04:57.111Z,2084.00
2023-04-18T10:05:57.784Z,2109.00
2023-04-18T10:06:57.179Z,2214.00
2023-04-18T10:07:57.210Z,2228.00
2023-04-18T10:08:57.218Z,2254.00
2023-04-18T10:09:57.296Z,2261.00
2023-04-18T10:10:57.361Z,2264.00
2023-04-18T10:11:57.433Z,2297.00
2023-04-18T10:12:57.501Z,2312.00
2023-04-18T10:13:57.561Z,2332.00
2023-04-18T10:14:57.611Z,2345.00
2023-04-18T10:15:57.752Z,2353.00
2023-04-18T10:16:57.767Z,2398.00
2023-04-18T10:18:04.460Z,2416.00
2023-04-18T10:18:58.828Z,2416.00
2023-04-18T10:19:58.627Z,2423.00
2023-04-18T10:20:57.847Z,2428.00
2023-04-18T10:21:57.840Z,2450.00
2023-04-18T10:22:57.848Z,2489.00
2023-04-18T10:23:57.850Z,2478.00
2023-04-18T10:24:57.854Z,2501.00
2023-04-18T10:25:57.881Z,2526.00
2023-04-18T10:26:57.854Z,2541.00
2023-04-18T10:27:57.944Z,2533.00
2023-04-18T10:28:57.940Z,2534.00
2023-04-18T10:29:57.931Z,2536.00
2023-04-18T10:30:58.029Z,2497.00
2023-04-18T10:31:58.062Z,2506.00
2023-04-18T10:32:57.958Z,2504.00
2023-04-18T10:34:57.970Z,2405.00
2023-04-18T10:35:57.945Z,2392.00
2023-04-18T10:36:57.994Z,2391.00
2023-04-18T10:37:57.940Z,2359.00
2023-04-18T10:38:57.947Z,2389.00
2023-04-18T10:39:57.993Z,2359.00
2023-04-18T10:40:57.998Z,2368.00
2023-04-18T10:41:57.981Z,2365.00
2023-04-18T10:42:57.956Z,2370.00
2023-04-18T10:43:57.960Z,2371.00
2023-04-18T10:44:57.955Z,2338.00
2023-04-18T10:45:57.972Z,2335.00
2023-04-18T10:46:57.996Z,2350.00
2023-04-18T10:47:58.014Z,2411.00
2023-04-18T10:48:57.961Z,2374.00
2023-04-18T10:49:57.971Z,2304.00
2023-04-18T10:50:57.976Z,2275.00
2023-04-18T10:51:57.982Z,2289.00
2023-04-18T10:52:57.976Z,2387.00
2023-04-18T10:53:57.980Z,2362.00
2023-04-18T10:54:59.214Z,2303.00
2023-04-18T10:55:58.032Z,2290.00
2023-04-18T10:56:57.972Z,2249.00
2023-04-18T10:57:57.980Z,2232.00
2023-04-18T10:58:58.024Z,2271.00
2023-04-18T10:59:57.988Z,2341.00
2023-04-18T11:00:58.056Z,2351.00
2023-04-18T11:01:58.097Z,2378.00
2023-04-18T11:02:58.139Z,2402.00
2023-04-18T11:03:58.029Z,2390.00
2023-04-18T11:04:58.030Z,2369.00
2023-04-18T11:05:58.021Z,2353.00
2023-04-18T11:06:57.993Z,2352.00
2023-04-18T11:07:58.033Z,2352.00
2023-04-18T11:08:58.027Z,2331.00
2023-04-18T11:09:58.020Z,2346.00
2023-04-18T11:10:58.035Z,2344.00
2023-04-18T11:11:58.031Z,2357.00
2023-04-18T11:12:58.063Z,2331.00
2023-04-18T11:13:58.021Z,2306.00
2023-04-18T11:14:58.071Z,2321.00
2023-04-18T11:15:58.010Z,2298.00
2023-04-18T11:16:58.126Z,2303.00
2023-04-18T11:17:58.109Z,2300.00
2023-04-18T11:18:58.057Z,2267.00
2023-04-18T11:19:58.222Z,2262.00
2023-04-18T11:20:58.019Z,2246.00
2023-04-18T11:21:58.145Z,2272.00
2023-04-18T11:22:58.030Z,2252.00
2023-04-18T11:23:58.070Z,2219.00
2023-04-18T11:24:58.075Z,2177.00
2023-04-18T11:25:58.096Z,2126.00
2023-04-18T11:26:58.083Z,2156.00
2023-04-18T11:27:58.072Z,2178.00
2023-04-18T11:28:58.105Z,2166.00
2023-04-18T11:29:58.139Z,2163.00
2023-04-18T11:30:58.057Z,2159.00
2023-04-18T11:31:58.891Z,2149.00
2023-04-18T11:32:58.112Z,2128.00
2023-04-18T11:33:58.067Z,2104.00
2023-04-18T11:34:58.075Z,2034.00
2023-04-18T11:35:58.083Z,2062.00
2023-04-18T11:36:58.113Z,2091.00
2023-04-18T11:37:58.070Z,2139.00
2023-04-18T11:38:58.617Z,2132.00
2023-04-18T11:39:58.135Z,2134.00
2023-04-18T11:40:58.177Z,2140.00
2023-04-18T11:41:58.259Z,2159.00
2023-04-18T11:42:58.261Z,2165.00
2023-04-18T11:43:58.328Z,2173.00
2023-04-18T11:44:58.364Z,2193.00
2023-04-18T11:45:58.445Z,2231.00
2023-04-18T11:46:58.504Z,2260.00
2023-04-18T11:47:58.648Z,2261.00
2023-04-18T11:48:58.625Z,2282.00
2023-04-18T11:49:58.668Z,2312.00
2023-04-18T11:50:58.719Z,2340.00
2023-04-18T11:51:58.779Z,2372.00
2023-04-18T11:52:58.846Z,2412.00
2023-04-18T11:53:58.875Z,2426.00
2023-04-18T11:54:58.948Z,2480.00
2023-04-18T11:55:59.066Z,2477.00
2023-04-18T11:56:59.032Z,2506.00
2023-04-18T11:57:59.062Z,2565.00
2023-04-18T11:58:59.142Z,2582.00
2023-04-18T11:59:59.155Z,2583.00
2023-04-18T12:00:59.158Z,2593.00
2023-04-18T12:01:59.143Z,2611.00
2023-04-18T12:02:59.272Z,2644.00
2023-04-18T12:03:59.340Z,2711.00
2023-04-18T12:04:59.524Z,2709.00
2023-04-18T12:05:59.256Z,2762.00
2023-04-18T12:06:59.182Z,2781.00
2023-04-18T12:07:59.211Z,2803.00
2023-04-18T12:08:59.173Z,2833.00
2023-04-18T12:09:59.148Z,2831.00